Time;durP1;ratioP1;P1;durP2;ratioP2;P2;SDS_P1;SDS_P2;PMS_P1;PMS_P2;Temp;Humidity;BMP_temperature;BMP_pressure;BME280_temperature;BME280_humidity;BME280_pressure;Samples;Min_cycle;Max_cycle;Signal;HPM_P1;HPM_P2
2023/07/12 00:01:13;;;;;;;2.50;1.00;;;25.10;61.60;;;;;;5073797;28;20803;-55
2023/07/12 00:03:40;;;;;;;1.30;1.10;;;25.10;61.50;;;;;;5073736;28;20472;-54
2023/07/12 00:06:13;;;;;;;2.27;1.30;;;25.10;61.60;;;;;;5073340;28;20942;-54
2023/07/12 00:08:40;;;;;;;1.23;0.70;;;25.20;61.00;;;;;;5073723;28;20468;-55
2023/07/12 00:11:16;;;;;;;3.77;1.27;;;25.30;61.60;;;;;;5073657;28;20481;-55
2023/07/12 00:13:44;;;;;;;1.10;1.00;;;25.40;61.40;;;;;;5073205;28;20870;-54
2023/07/12 00:16:22;;;;;;;3.77;1.30;;;25.40;61.40;;;;;;5073566;28;20537;-54
2023/07/12 00:18:49;;;;;;;2.63;1.60;;;25.40;61.20;;;;;;5073400;28;20847;-54
2023/07/12 00:21:22;;;;;;;1.97;1.27;;;25.50;61.70;;;;;;5073569;28;20517;-55
2023/07/12 00:23:49;;;;;;;3.20;1.10;;;25.50;61.40;;;;;;5073752;28;20518;-55
2023/07/12 00:26:21;;;;;;;2.90;1.20;;;25.40;61.50;;;;;;5073606;28;20440;-54
2023/07/12 00:28:49;;;;;;;1.37;1.00;;;25.40;61.90;;;;;;5073730;28;20482;-54
2023/07/12 00:31:15;;;;;;;1.47;1.37;;;25.30;61.90;;;;;;5073358;28;20448;-54
2023/07/12 00:33:42;;;;;;;1.80;1.10;;;25.20;61.90;;;;;;5073357;28;20472;-55
2023/07/12 00:36:15;;;;;;;1.47;1.03;;;25.10;62.70;;;;;;5073299;28;20488;-55
2023/07/12 00:38:42;;;;;;;2.70;1.20;;;25.10;63.20;;;;;;5072947;28;20910;-54
2023/07/12 00:41:18;;;;;;;1.67;1.37;;;25.00;64.20;;;;;;5073254;28;20449;-54
2023/07/12 00:43:51;;;;;;;4.73;1.03;;;25.00;65.70;;;;;;5072857;28;20791;-53
2023/07/12 00:46:21;;;;;;;2.63;1.50;;;24.90;66.30;;;;;;5073259;28;20467;-54
2023/07/12 00:48:49;;;;;;;2.90;1.20;;;25.00;67.80;;;;;;5073176;28;20444;-54
2023/07/12 00:51:44;;;;;;;3.20;1.60;;;25.00;69.30;;;;;;5073149;28;20448;-54
2023/07/12 00:54:13;;;;;;;2.43;1.70;;;24.90;67.80;;;;;;5072760;28;20876;-54
2023/07/12 00:56:40;;;;;;;6.53;1.40;;;24.80;67.70;;;;;;5072750;28;20838;-55
2023/07/12 00:59:11;;;;;;;1.53;1.17;;;24.70;68.20;;;;;;5073192;28;20447;-55
2023/07/12 01:01:38;;;;;;;4.07;1.30;;;24.70;67.60;;;;;;5072376;28;20429;-54
2023/07/12 01:04:06;;;;;;;2.40;1.83;;;24.70;68.80;;;;;;5073070;28;20468;-54
2023/07/12 01:06:34;;;;;;;4.83;1.63;;;24.70;69.40;;;;;;5073057;28;20451;-54
2023/07/12 01:09:16;;;;;;;1.17;0.90;;;24.80;68.90;;;;;;5073037;28;20459;-55
2023/07/12 01:11:43;;;;;;;1.90;1.30;;;24.70;69.50;;;;;;5072968;28;20433;-55
2023/07/12 01:14:14;;;;;;;1.70;1.50;;;24.70;69.50;;;;;;5072955;28;20473;-54
2023/07/12 01:16:43;;;;;;;1.43;1.33;;;24.70;69.70;;;;;;5072632;28;20887;-55
2023/07/12 01:19:11;;;;;;;3.03;1.43;;;24.60;69.50;;;;;;5072574;28;20464;-55
2023/07/12 01:21:44;;;;;;;2.30;1.43;;;24.50;69.30;;;;;;5072492;28;20452;-55
2023/07/12 01:24:11;;;;;;;1.50;1.40;;;24.50;69.40;;;;;;5072764;28;20576;-55
2023/07/12 01:26:41;;;;;;;3.30;1.70;;;24.50;70.50;;;;;;5072673;28;20436;-55
2023/07/12 01:29:08;;;;;;;3.43;1.80;;;24.50;70.70;;;;;;5072740;28;20455;-56
2023/07/12 01:31:36;;;;;;;2.87;1.60;;;24.50;70.90;;;;;;5072437;28;20853;-55
2023/07/12 01:34:03;;;;;;;2.37;1.40;;;24.50;71.40;;;;;;5072681;28;20461;-56
2023/07/12 01:36:30;;;;;;;1.87;1.37;;;24.40;71.70;;;;;;5072653;28;20529;-56
2023/07/12 01:39:02;;;;;;;1.53;1.40;;;24.40;72.10;;;;;;5073440;28;20452;-56
2023/07/12 01:41:29;;;;;;;3.00;1.47;;;24.30;71.70;;;;;;5072672;28;20433;-56
2023/07/12 01:43:55;;;;;;;1.93;1.47;;;24.30;72.20;;;;;;5072225;28;20471;-56
2023/07/12 01:46:23;;;;;;;3.40;1.40;;;24.30;73.00;;;;;;5072604;28;20444;-56
2023/07/12 01:48:49;;;;;;;2.50;1.30;;;24.30;72.80;;;;;;5072549;28;20448;-56
2023/07/12 01:51:18;;;;;;;3.60;1.70;;;24.30;73.40;;;;;;5072599;28;20448;-56
2023/07/12 01:53:45;;;;;;;4.87;1.93;;;24.20;73.80;;;;;;5072197;28;20887;-56
2023/07/12 01:56:14;;;;;;;1.87;1.40;;;24.10;74.00;;;;;;5072432;28;20456;-56
2023/07/12 01:58:40;;;;;;;2.53;1.53;;;24.20;74.70;;;;;;5072371;28;20519;-56
2023/07/12 02:01:08;;;;;;;3.47;1.77;;;24.20;74.50;;;;;;5072483;28;20476;-56
2023/07/12 02:03:35;;;;;;;3.30;1.37;;;24.20;74.20;;;;;;5072486;28;20473;-56
2023/07/12 02:06:02;;;;;;;4.63;2.27;;;24.10;73.60;;;;;;5072402;28;20520;-56
2023/07/12 02:08:29;;;;;;;3.10;1.47;;;24.10;73.80;;;;;;5072409;28;20494;-56
2023/07/12 02:10:56;;;;;;;1.67;1.30;;;24.00;74.00;;;;;;5072094;28;20951;-56
2023/07/12 02:13:24;;;;;;;2.60;1.67;;;23.90;74.60;;;;;;5074896;28;20562;-56
2023/07/12 02:15:51;;;;;;;6.23;1.60;;;23.80;75.60;;;;;;5075865;28;20447;-56
2023/07/12 02:18:18;;;;;;;5.50;1.53;;;23.70;75.60;;;;;;5075518;28;20491;-56
2023/07/12 02:20:45;;;;;;;5.73;1.93;;;23.70;76.30;;;;;;5075522;28;20930;-56
2023/07/12 02:23:12;;;;;;;3.80;1.90;;;23.50;76.70;;;;;;5075385;28;21012;-55
2023/07/12 02:25:39;;;;;;;3.13;1.90;;;23.40;77.20;;;;;;5075257;28;20968;-55
2023/07/12 02:28:06;;;;;;;5.13;2.03;;;23.40;78.10;;;;;;5075592;28;20453;-55
2023/07/12 02:30:34;;;;;;;5.03;2.10;;;23.20;77.30;;;;;;5075274;28;20506;-55
2023/07/12 02:33:01;;;;;;;2.00;1.80;;;23.10;77.80;;;;;;5075560;28;20467;-55
2023/07/12 02:35:29;;;;;;;3.27;2.23;;;22.90;78.50;;;;;;5075662;28;20436;-55
2023/07/12 02:37:56;;;;;;;3.43;1.60;;;22.80;79.50;;;;;;5075411;28;20477;-55
2023/07/12 02:40:24;;;;;;;2.10;1.77;;;22.70;80.10;;;;;;5075453;28;20456;-55
2023/07/12 02:42:51;;;;;;;2.87;1.80;;;22.60;81.20;;;;;;5075374;28;20532;-55
2023/07/12 02:45:18;;;;;;;4.83;2.20;;;22.50;80.10;;;;;;5075342;28;20449;-55
2023/07/12 02:47:46;;;;;;;2.57;1.70;;;22.30;79.10;;;;;;5075181;28;20470;-55
2023/07/12 02:50:13;;;;;;;5.43;2.20;;;22.30;80.10;;;;;;5075172;28;20514;-55
2023/07/12 02:52:40;;;;;;;3.17;2.50;;;22.20;79.90;;;;;;5075187;28;20465;-55
2023/07/12 02:55:07;;;;;;;2.60;1.50;;;22.20;80.90;;;;;;5075651;28;20453;-56
2023/07/12 02:57:34;;;;;;;2.77;1.30;;;22.10;75.50;;;;;;5075160;28;20480;-55
2023/07/12 03:00:01;;;;;;;2.10;1.40;;;22.00;73.60;;;;;;5075120;28;20452;-55
2023/07/12 03:02:29;;;;;;;7.37;1.43;;;21.90;73.70;;;;;;5074620;28;21013;-56
2023/07/12 03:04:57;;;;;;;3.50;1.30;;;21.90;74.80;;;;;;5074973;28;20449;-55
2023/07/12 03:07:23;;;;;;;2.90;1.23;;;21.80;76.30;;;;;;5074987;28;20440;-55
2023/07/12 03:09:53;;;;;;;4.87;1.47;;;21.70;78.10;;;;;;5074836;28;20445;-55
2023/07/12 03:12:20;;;;;;;2.87;1.40;;;21.50;78.20;;;;;;5074865;28;20448;-54
2023/07/12 03:14:46;;;;;;;2.53;1.40;;;21.40;79.40;;;;;;5074705;28;20451;-55
2023/07/12 03:17:13;;;;;;;2.00;1.30;;;21.20;80.20;;;;;;5074406;28;20483;-54
2023/07/12 03:19:40;;;;;;;2.00;1.37;;;21.20;81.20;;;;;;5074732;28;20483;-54
2023/07/12 03:22:09;;;;;;;1.90;1.43;;;21.10;82.80;;;;;;5074438;28;20938;-54
2023/07/12 03:24:36;;;;;;;2.33;1.50;;;21.20;83.20;;;;;;5073827;28;20467;-54
2023/07/12 03:27:03;;;;;;;4.90;1.63;;;21.10;83.70;;;;;;5074533;28;20441;-54
2023/07/12 03:29:30;;;;;;;1.87;1.20;;;21.10;84.60;;;;;;5074476;28;20499;-54
2023/07/12 03:31:57;;;;;;;3.53;1.27;;;21.10;84.20;;;;;;5074432;28;20440;-55
2023/07/12 03:34:23;;;;;;;3.17;1.33;;;21.00;83.60;;;;;;5074292;28;20476;-55
2023/07/12 03:36:50;;;;;;;2.00;1.57;;;21.10;84.60;;;;;;5075079;28;20448;-55
2023/07/12 03:39:18;;;;;;;3.37;1.70;;;21.00;84.10;;;;;;5074272;28;20460;-55
2023/07/12 03:41:45;;;;;;;1.77;1.67;;;21.00;85.10;;;;;;5074141;28;20448;-55
2023/07/12 03:44:11;;;;;;;3.23;1.20;;;21.10;85.60;;;;;;5073768;28;20982;-55
2023/07/12 03:46:38;;;;;;;1.93;1.40;;;21.10;85.20;;;;;;5074012;28;20449;-55
2023/07/12 03:49:05;;;;;;;1.77;1.13;;;21.20;84.40;;;;;;5074036;28;20445;-55
2023/07/12 03:51:31;;;;;;;1.87;1.53;;;21.20;84.50;;;;;;5073627;28;21135;-55
2023/07/12 03:53:59;;;;;;;2.10;1.60;;;21.30;84.20;;;;;;5073851;28;20472;-55
2023/07/12 03:56:27;;;;;;;2.97;1.40;;;21.40;83.00;;;;;;5073929;28;20453;-55
2023/07/12 03:58:54;;;;;;;1.77;1.00;;;21.40;83.00;;;;;;5073745;28;20480;-55
2023/07/12 04:01:20;;;;;;;2.63;1.13;;;21.40;83.00;;;;;;5073958;28;20449;-55
2023/07/12 04:03:47;;;;;;;2.40;1.47;;;21.50;83.20;;;;;;5073739;28;20464;-55
2023/07/12 04:06:14;;;;;;;1.93;1.20;;;21.50;83.00;;;;;;5074112;28;20491;-55
2023/07/12 04:08:40;;;;;;;1.70;1.17;;;21.50;82.80;;;;;;5073383;28;20954;-55
2023/07/12 04:11:08;;;;;;;2.80;1.63;;;21.50;83.50;;;;;;5073690;28;20946;-55
2023/07/12 04:13:36;;;;;;;2.00;1.50;;;21.60;83.50;;;;;;5073585;28;20504;-55
2023/07/12 04:16:03;;;;;;;2.70;1.50;;;21.70;83.10;;;;;;5073609;28;20506;-55
2023/07/12 04:18:30;;;;;;;3.00;1.00;;;21.70;82.20;;;;;;5073229;28;20590;-55
2023/07/12 04:21:03;;;;;;;1.70;1.00;;;21.60;80.90;;;;;;5075782;28;20459;-55
2023/07/12 04:23:29;;;;;;;2.47;1.27;;;21.60;80.50;;;;;;5073532;28;20866;-55
2023/07/12 04:26:00;;;;;;;1.63;1.00;;;21.40;80.80;;;;;;5073504;28;20468;-55
2023/07/12 04:28:28;;;;;;;2.70;1.40;;;21.40;81.30;;;;;;5073607;28;20486;-55
2023/07/12 04:30:56;;;;;;;4.47;1.27;;;21.20;82.00;;;;;;5073597;28;20448;-55
2023/07/12 04:33:24;;;;;;;1.90;1.00;;;21.20;82.90;;;;;;5073365;28;20456;-55
2023/07/12 04:35:50;;;;;;;1.70;1.60;;;21.20;82.70;;;;;;5073268;28;20440;-55
2023/07/12 04:38:17;;;;;;;1.47;1.10;;;21.20;82.80;;;;;;5073367;28;20541;-55
2023/07/12 04:40:44;;;;;;;1.50;1.10;;;21.20;82.20;;;;;;5073388;28;20457;-55
2023/07/12 04:43:10;;;;;;;2.07;1.23;;;21.30;82.30;;;;;;5073263;28;20473;-55
2023/07/12 04:45:39;;;;;;;1.77;1.20;;;21.30;81.70;;;;;;5073044;28;20942;-55
2023/07/12 04:48:09;;;;;;;1.80;1.70;;;21.20;82.10;;;;;;5073218;28;20494;-55
2023/07/12 04:50:36;;;;;;;2.73;1.23;;;21.20;82.00;;;;;;5073241;28;20448;-54
2023/07/12 04:53:03;;;;;;;1.50;1.10;;;21.10;81.90;;;;;;5073289;28;20472;-55
2023/07/12 04:55:31;;;;;;;2.30;1.60;;;21.00;83.10;;;;;;5072994;28;20480;-56
2023/07/12 04:57:57;;;;;;;1.13;1.03;;;20.90;83.40;;;;;;5073139;28;20520;-56
2023/07/12 05:00:25;;;;;;;4.93;1.87;;;20.90;84.10;;;;;;5072928;28;20934;-56
2023/07/12 05:02:52;;;;;;;1.20;1.00;;;20.90;84.20;;;;;;5073132;28;20475;-55
2023/07/12 05:05:20;;;;;;;3.57;1.27;;;20.90;85.00;;;;;;5072829;28;20953;-56
2023/07/12 05:07:48;;;;;;;2.60;1.00;;;21.00;84.50;;;;;;5072920;28;20977;-56
2023/07/12 05:10:15;;;;;;;11.90;1.40;;;21.10;84.20;;;;;;5073193;28;20895;-56
2023/07/12 05:12:42;;;;;;;2.40;1.20;;;21.00;83.90;;;;;;5073047;28;20500;-56
2023/07/12 05:15:10;;;;;;;3.00;1.03;;;21.00;83.80;;;;;;5073070;28;20449;-56
2023/07/12 05:17:38;;;;;;;1.50;1.20;;;20.90;83.80;;;;;;5073055;28;20499;-56
2023/07/12 05:20:07;;;;;;;3.37;1.40;;;20.80;85.20;;;;;;5072612;28;20506;-56
2023/07/12 05:22:35;;;;;;;1.60;1.07;;;20.80;85.00;;;;;;5072964;28;20469;-56
2023/07/12 05:25:02;;;;;;;1.93;1.00;;;20.60;85.20;;;;;;5072607;28;20946;-56
2023/07/12 05:27:28;;;;;;;2.50;1.13;;;20.60;86.30;;;;;;5072653;28;20809;-56
2023/07/12 05:29:55;;;;;;;1.90;0.87;;;20.50;86.60;;;;;;5072879;28;20452;-55
2023/07/12 05:32:22;;;;;;;1.23;1.10;;;20.40;86.90;;;;;;5072809;28;20467;-55
2023/07/12 05:34:49;;;;;;;3.43;1.20;;;20.40;88.00;;;;;;5073110;28;20488;-55
2023/07/12 05:37:17;;;;;;;1.70;1.20;;;20.40;87.70;;;;;;5072452;28;20453;-56
2023/07/12 05:39:45;;;;;;;3.73;1.33;;;20.30;88.60;;;;;;5072257;28;20835;-55
2023/07/12 05:42:12;;;;;;;2.00;1.10;;;20.30;89.00;;;;;;5072703;28;20449;-55
2023/07/12 05:44:39;;;;;;;1.37;1.13;;;20.30;89.30;;;;;;5072479;28;20479;-55
2023/07/12 05:47:06;;;;;;;2.10;1.10;;;20.30;89.50;;;;;;5073499;28;20448;-55
2023/07/12 05:49:34;;;;;;;3.70;1.20;;;20.40;89.50;;;;;;5076543;28;20471;-55
2023/07/12 05:52:01;;;;;;;2.90;1.40;;;20.40;89.50;;;;;;5076525;28;20487;-55
2023/07/12 05:54:28;;;;;;;1.40;1.30;;;20.40;90.00;;;;;;5076361;28;20472;-55
2023/07/12 05:56:56;;;;;;;4.70;1.40;;;20.40;90.00;;;;;;5076368;28;20506;-55
2023/07/12 05:59:23;;;;;;;3.23;1.37;;;20.40;90.10;;;;;;5076302;28;20484;-55
2023/07/12 06:01:50;;;;;;;2.90;1.30;;;20.50;90.60;;;;;;5077144;28;20456;-55
2023/07/12 06:04:16;;;;;;;2.17;1.40;;;20.60;89.50;;;;;;5076257;28;20835;-55
2023/07/12 06:06:43;;;;;;;7.53;1.37;;;20.60;89.80;;;;;;5076207;28;20494;-55
2023/07/12 06:09:10;;;;;;;1.50;1.20;;;20.60;89.00;;;;;;5076204;28;20449;-56
2023/07/12 06:11:36;;;;;;;2.83;1.37;;;20.60;88.80;;;;;;5076624;28;20456;-55
2023/07/12 06:14:04;;;;;;;2.37;1.37;;;20.70;89.10;;;;;;5075949;28;20476;-56
2023/07/12 06:16:31;;;;;;;2.80;1.43;;;20.80;89.00;;;;;;5076110;28;20490;-55
2023/07/12 06:18:58;;;;;;;4.53;1.37;;;20.80;88.90;;;;;;5075766;28;20495;-56
2023/07/12 06:21:24;;;;;;;1.70;1.60;;;20.90;89.20;;;;;;5075916;28;20502;-55
2023/07/12 06:23:51;;;;;;;2.70;1.57;;;21.00;89.10;;;;;;5075888;28;20473;-56
2023/07/12 06:26:18;;;;;;;2.50;1.57;;;21.00;87.60;;;;;;5075586;28;21053;-55
2023/07/12 06:28:44;;;;;;;3.20;1.43;;;21.10;87.90;;;;;;5075862;28;20441;-55
2023/07/12 06:31:13;;;;;;;1.43;1.30;;;21.30;87.10;;;;;;5075548;28;20445;-56
2023/07/12 06:33:39;;;;;;;2.83;1.47;;;21.30;86.00;;;;;;5075763;28;20498;-55
2023/07/12 06:36:06;;;;;;;6.80;1.63;;;21.40;84.10;;;;;;5075503;28;20968;-55
2023/07/12 06:38:33;;;;;;;4.30;1.40;;;21.40;83.70;;;;;;5075647;28;20568;-55
2023/07/12 06:41:00;;;;;;;2.83;1.57;;;21.50;83.80;;;;;;5075659;28;20444;-55
2023/07/12 06:43:27;;;;;;;2.60;1.30;;;21.60;82.40;;;;;;5075463;28;20480;-55
2023/07/12 06:45:55;;;;;;;4.97;1.73;;;21.60;83.70;;;;;;5075577;28;20449;-55
2023/07/12 06:48:23;;;;;;;3.17;1.70;;;21.70;82.50;;;;;;5075432;28;20488;-55
2023/07/12 06:50:50;;;;;;;3.50;1.73;;;21.70;81.70;;;;;;5075515;28;20494;-55
2023/07/12 06:53:16;;;;;;;1.83;1.20;;;21.80;80.20;;;;;;5075305;28;20473;-55
2023/07/12 06:55:44;;;;;;;4.17;1.20;;;21.90;80.60;;;;;;5075062;28;20954;-55
2023/07/12 06:58:11;;;;;;;4.00;1.63;;;21.90;79.70;;;;;;5074590;28;20481;-55
2023/07/12 07:00:40;;;;;;;1.97;1.17;;;22.00;79.00;;;;;;5074707;28;20449;-55
2023/07/12 07:03:08;;;;;;;4.53;2.07;;;22.00;79.20;;;;;;5075233;28;20488;-55
2023/07/12 07:05:37;;;;;;;2.83;1.37;;;22.10;79.00;;;;;;5075229;28;20463;-55
2023/07/12 07:08:05;;;;;;;1.70;1.30;;;22.20;78.60;;;;;;5075292;28;20445;-55
2023/07/12 07:10:31;;;;;;;3.10;1.47;;;22.30;77.70;;;;;;5075181;28;20448;-55
2023/07/12 07:12:58;;;;;;;3.40;1.60;;;22.30;76.30;;;;;;5075097;28;20469;-55
2023/07/12 07:15:25;;;;;;;2.77;1.10;;;22.30;75.30;;;;;;5075658;28;20449;-55
2023/07/12 07:17:52;;;;;;;2.53;1.87;;;22.30;75.40;;;;;;5075618;28;20449;-56
2023/07/12 07:20:19;;;;;;;2.40;1.57;;;22.40;76.00;;;;;;5074571;28;20464;-55
2023/07/12 07:22:47;;;;;;;2.90;1.53;;;22.40;74.60;;;;;;5075079;28;20556;-55
2023/07/12 07:25:14;;;;;;;3.63;1.43;;;22.30;73.40;;;;;;5075056;28;20476;-55
2023/07/12 07:27:40;;;;;;;1.93;1.43;;;22.30;74.60;;;;;;5074546;28;21049;-55
2023/07/12 07:30:08;;;;;;;4.63;1.70;;;22.20;74.00;;;;;;5074689;28;20448;-55
2023/07/12 07:32:35;;;;;;;3.17;1.70;;;22.20;74.10;;;;;;5074763;28;20475;-55
2023/07/12 07:35:01;;;;;;;2.73;1.50;;;22.20;72.40;;;;;;5074494;28;20951;-55
2023/07/12 07:37:28;;;;;;;6.50;1.93;;;22.30;73.00;;;;;;5074346;28;20806;-55
2023/07/12 07:39:56;;;;;;;10.47;1.87;;;22.20;73.00;;;;;;5074533;28;20837;-55
2023/07/12 07:42:23;;;;;;;5.03;2.00;;;22.20;73.30;;;;;;5074527;28;20456;-55
2023/07/12 07:44:50;;;;;;;4.33;1.93;;;22.20;71.70;;;;;;5074516;28;20474;-55
2023/07/12 07:47:17;;;;;;;8.87;2.00;;;22.20;73.20;;;;;;5074384;28;20444;-55
2023/07/12 07:49:44;;;;;;;3.30;1.57;;;22.30;73.10;;;;;;5075417;28;20451;-55
2023/07/12 07:52:10;;;;;;;2.27;1.60;;;22.40;71.40;;;;;;5076061;28;20459;-55
2023/07/12 07:54:39;;;;;;;2.77;1.60;;;22.50;71.90;;;;;;5075236;28;20453;-55
2023/07/12 07:57:08;;;;;;;8.47;2.70;;;22.70;72.30;;;;;;5074214;28;20452;-55
2023/07/12 07:59:35;;;;;;;2.47;1.63;;;23.00;70.90;;;;;;5073969;28;20477;-55
2023/07/12 08:02:02;;;;;;;4.40;1.40;;;23.10;68.60;;;;;;5074207;28;20441;-55
2023/07/12 08:04:31;;;;;;;2.60;1.77;;;23.10;66.90;;;;;;5074057;28;20495;-55
2023/07/12 08:06:57;;;;;;;4.90;1.93;;;23.20;68.20;;;;;;5073802;28;20452;-55
2023/07/12 08:09:24;;;;;;;3.00;1.40;;;23.20;66.80;;;;;;5074085;28;20823;-55
2023/07/12 08:11:51;;;;;;;3.20;2.17;;;23.20;65.70;;;;;;5073914;28;20449;-55
2023/07/12 08:14:20;;;;;;;3.63;1.37;;;23.20;65.50;;;;;;5073923;28;20460;-55
2023/07/12 08:16:48;;;;;;;4.70;1.73;;;23.30;66.70;;;;;;5073843;28;20441;-55
2023/07/12 08:19:15;;;;;;;7.40;1.90;;;23.50;64.80;;;;;;5073768;28;20490;-55
2023/07/12 08:21:42;;;;;;;4.43;1.90;;;23.70;62.70;;;;;;5074451;28;20440;-55
2023/07/12 08:24:08;;;;;;;4.10;1.40;;;23.80;60.80;;;;;;5073689;28;20479;-55
2023/07/12 08:26:36;;;;;;;4.43;1.60;;;23.70;60.90;;;;;;5073659;28;20445;-55
2023/07/12 08:29:03;;;;;;;2.73;1.57;;;23.70;64.20;;;;;;5073328;28;20814;-55
2023/07/12 08:31:31;;;;;;;5.77;1.90;;;23.90;64.10;;;;;;5073751;28;20487;-55
2023/07/12 08:33:58;;;;;;;4.40;1.27;;;23.90;60.70;;;;;;5073212;28;21005;-55
2023/07/12 08:36:24;;;;;;;7.40;2.00;;;23.90;59.90;;;;;;5073728;28;20494;-55
2023/07/12 08:38:51;;;;;;;7.87;1.60;;;24.00;59.50;;;;;;5073370;28;20488;-56
2023/07/12 08:41:21;;;;;;;4.90;1.20;;;24.00;59.20;;;;;;5073763;28;20492;-55
2023/07/12 08:43:48;;;;;;;5.00;1.20;;;24.10;58.80;;;;;;5073502;28;20469;-56
2023/07/12 08:46:18;;;;;;;8.67;2.17;;;24.00;58.30;;;;;;5073558;28;20448;-55
2023/07/12 08:48:48;;;;;;;4.20;1.40;;;24.00;57.90;;;;;;5073669;28;20421;-55
2023/07/12 08:51:18;;;;;;;4.80;1.20;;;24.00;58.70;;;;;;5073421;28;20543;-55
2023/07/12 08:53:45;;;;;;;2.93;1.50;;;24.10;59.90;;;;;;5073400;28;20461;-55
2023/07/12 08:56:15;;;;;;;6.30;1.30;;;24.00;56.70;;;;;;5073091;28;20440;-55
2023/07/12 08:58:45;;;;;;;4.77;1.20;;;24.10;58.40;;;;;;5073386;28;20453;-55
2023/07/12 09:01:15;;;;;;;4.77;1.30;;;24.20;57.30;;;;;;5073396;28;20865;-55
2023/07/12 09:03:42;;;;;;;5.80;1.77;;;24.20;57.60;;;;;;5072939;28;21016;-55
2023/07/12 09:06:13;;;;;;;3.83;1.20;;;24.30;57.20;;;;;;5073392;28;20456;-55
2023/07/12 09:08:43;;;;;;;4.30;1.40;;;24.40;55.70;;;;;;5073351;28;20425;-55
2023/07/12 09:11:20;;;;;;;3.03;1.60;;;24.40;55.70;;;;;;5072940;28;20433;-55
2023/07/12 09:13:48;;;;;;;3.30;1.33;;;24.10;54.90;;;;;;5073053;28;20468;-55
2023/07/12 09:16:24;;;;;;;4.80;1.47;;;24.00;56.20;;;;;;5073215;28;20460;-55
2023/07/12 09:18:53;;;;;;;3.43;1.23;;;24.00;55.20;;;;;;5072897;28;20515;-55
2023/07/12 09:21:24;;;;;;;4.50;1.60;;;24.00;57.00;;;;;;5073130;28;20445;-55
2023/07/12 09:23:53;;;;;;;3.57;1.53;;;24.10;57.30;;;;;;5076810;28;20475;-56
2023/07/12 09:26:23;;;;;;;3.87;1.20;;;24.40;58.20;;;;;;5077009;28;20447;-56
2023/07/12 09:28:51;;;;;;;4.00;1.40;;;24.50;57.60;;;;;;5076735;28;20943;-56
2023/07/12 09:31:24;;;;;;;3.10;1.30;;;24.50;56.40;;;;;;5076964;28;20451;-55
2023/07/12 09:33:54;;;;;;;4.13;1.57;;;24.70;55.80;;;;;;5076856;28;20464;-56
2023/07/12 09:36:22;;;;;;;2.37;1.10;;;25.10;56.50;;;;;;5076926;28;20905;-56
2023/07/12 09:38:49;;;;;;;4.97;1.40;;;25.30;54.60;;;;;;5076766;28;20452;-56
2023/07/12 09:41:20;;;;;;;2.70;1.40;;;25.50;54.70;;;;;;5076498;28;20942;-56
2023/07/12 09:43:53;;;;;;;5.30;1.40;;;25.40;54.10;;;;;;5076755;28;20530;-56
2023/07/12 09:46:30;;;;;;;4.10;1.50;;;25.10;53.50;;;;;;5077286;28;20741;-56
2023/07/12 09:49:01;;;;;;;4.40;1.23;;;25.00;54.60;;;;;;5076709;28;20429;-56
2023/07/12 09:51:37;;;;;;;3.37;2.10;;;25.00;56.50;;;;;;5076261;28;20799;-55
2023/07/12 09:54:12;;;;;;;3.23;1.70;;;25.30;54.30;;;;;;5076563;28;20470;-56
2023/07/12 09:56:47;;;;;;;3.53;1.10;;;25.40;53.80;;;;;;5076313;28;20428;-56
2023/07/12 09:59:30;;;;;;;8.03;1.87;;;25.50;53.00;;;;;;5076357;28;20464;-56
2023/07/12 10:02:03;;;;;;;1.47;1.10;;;25.50;52.30;;;;;;5077042;28;20545;-55
2023/07/12 10:04:40;;;;;;;3.07;1.33;;;25.30;52.10;;;;;;5075915;28;20468;-55
2023/07/12 10:07:15;;;;;;;3.47;1.17;;;25.40;52.50;;;;;;5076398;28;20436;-54
2023/07/12 10:09:47;;;;;;;3.93;1.50;;;25.60;51.60;;;;;;5076364;28;20511;-55
2023/07/12 10:12:23;;;;;;;3.77;1.53;;;25.90;51.20;;;;;;5076134;28;20437;-55
2023/07/12 10:14:52;;;;;;;4.03;1.20;;;26.40;51.60;;;;;;5076350;28;20857;-55
2023/07/12 10:17:27;;;;;;;2.57;0.93;;;26.70;49.40;;;;;;5076150;28;20828;-55
2023/07/12 10:19:55;;;;;;;8.97;1.33;;;27.30;47.60;;;;;;5075713;28;20483;-55
2023/07/12 10:22:30;;;;;;;1.53;1.07;;;27.60;46.40;;;;;;5076130;28;20460;-55
2023/07/12 10:24:59;;;;;;;4.47;0.90;;;27.80;46.00;;;;;;5076327;28;20460;-55
2023/07/12 10:27:30;;;;;;;3.83;1.37;;;28.00;46.40;;;;;;5076058;28;20475;-55
2023/07/12 10:30:01;;;;;;;3.90;1.27;;;28.40;43.70;;;;;;5076035;28;20440;-55
2023/07/12 10:32:35;;;;;;;2.77;1.20;;;28.80;43.00;;;;;;5075658;28;20937;-55
2023/07/12 10:35:11;;;;;;;2.73;1.23;;;29.30;43.60;;;;;;5075882;28;20482;-55
2023/07/12 10:37:45;;;;;;;5.00;1.43;;;29.90;42.10;;;;;;5075933;28;20440;-55
2023/07/12 10:40:25;;;;;;;4.70;1.57;;;30.30;40.10;;;;;;5075565;28;20920;-55
2023/07/12 10:42:57;;;;;;;5.50;1.10;;;30.60;39.60;;;;;;5075607;28;20464;-55
2023/07/12 10:45:26;;;;;;;2.83;0.90;;;30.80;38.20;;;;;;5075446;28;20444;-55
2023/07/12 10:47:54;;;;;;;2.97;1.33;;;31.30;38.70;;;;;;5075391;28;20961;-54
2023/07/12 10:50:24;;;;;;;4.90;1.37;;;31.50;36.50;;;;;;5075653;28;20444;-54
2023/07/12 10:53:01;;;;;;;1.77;1.10;;;31.80;36.20;;;;;;5075144;28;20996;-54
2023/07/12 10:55:44;;;;;;;2.43;1.33;;;31.80;34.60;;;;;;5075497;28;20436;-54
2023/07/12 10:58:26;;;;;;;4.43;1.03;;;31.40;36.40;;;;;;5075391;28;20444;-54
2023/07/12 11:00:55;;;;;;;2.43;1.20;;;31.50;37.10;;;;;;5075333;28;20475;-54
2023/07/12 11:03:31;;;;;;;1.83;1.10;;;31.60;34.30;;;;;;5075285;28;20463;-54
2023/07/12 11:06:07;;;;;;;6.40;1.50;;;31.80;34.70;;;;;;5075262;28;20432;-54
2023/07/12 11:08:54;;;;;;;2.73;1.43;;;32.00;34.50;;;;;;5074838;28;20432;-54
2023/07/12 11:11:45;;;;;;;3.53;1.30;;;32.80;35.50;;;;;;5075176;28;20429;-55
2023/07/12 11:14:20;;;;;;;2.20;0.93;;;32.90;33.00;;;;;;5075043;28;20491;-54
2023/07/12 11:16:51;;;;;;;3.10;1.03;;;32.10;32.90;;;;;;5075088;28;20467;-54
2023/07/12 11:19:44;;;;;;;3.00;1.07;;;31.10;36.00;;;;;;5074621;28;20459;-54
2023/07/12 11:22:13;;;;;;;2.10;0.80;;;31.30;36.30;;;;;;5074911;28;20433;-54
2023/07/12 11:24:52;;;;;;;6.50;1.30;;;31.60;33.90;;;;;;5074953;28;20454;-54
2023/07/12 11:27:32;;;;;;;2.77;1.40;;;32.00;33.70;;;;;;5074829;28;20473;-54
2023/07/12 11:30:20;;;;;;;2.43;1.13;;;32.40;33.40;;;;;;5075351;28;20486;-55
2023/07/12 11:32:47;;;;;;;4.43;1.40;;;32.30;33.80;;;;;;5074407;28;20472;-54
2023/07/12 11:35:18;;;;;;;3.10;1.30;;;32.00;33.30;;;;;;5074444;28;20448;-54
2023/07/12 11:37:48;;;;;;;3.00;1.07;;;32.00;32.80;;;;;;5074755;28;20428;-54
2023/07/12 11:40:21;;;;;;;3.77;1.23;;;32.70;32.50;;;;;;5074300;28;20498;-55
2023/07/12 11:42:48;;;;;;;2.60;1.10;;;33.00;30.80;;;;;;5074526;28;20521;-54
2023/07/12 11:45:20;;;;;;;2.23;1.20;;;33.80;30.70;;;;;;5073925;28;20452;-54
2023/07/12 11:47:49;;;;;;;7.00;1.10;;;34.30;28.90;;;;;;5074629;28;20845;-54
2023/07/12 11:50:20;;;;;;;2.40;1.40;;;34.10;28.60;;;;;;5074413;28;20448;-54
2023/07/12 11:52:47;;;;;;;2.83;1.10;;;34.20;28.90;;;;;;5074362;28;20499;-54
2023/07/12 11:55:17;;;;;;;5.70;1.40;;;34.60;27.60;;;;;;5074299;28;20444;-55
2023/07/12 11:57:45;;;;;;;4.23;1.20;;;34.60;27.30;;;;;;5074334;28;20447;-55
2023/07/12 12:00:17;;;;;;;3.60;1.30;;;34.70;27.40;;;;;;5074266;28;20487;-55
2023/07/12 12:02:53;;;;;;;2.20;1.13;;;34.60;27.80;;;;;;5074154;28;20480;-54
2023/07/12 12:05:25;;;;;;;3.67;1.20;;;34.10;29.00;;;;;;5074296;28;20424;-54
2023/07/12 12:07:53;;;;;;;2.07;1.10;;;33.50;28.30;;;;;;5074329;28;20464;-54
2023/07/12 12:10:24;;;;;;;5.80;1.57;;;33.20;29.70;;;;;;5073974;28;20445;-54
2023/07/12 12:12:53;;;;;;;10.53;1.60;;;33.40;29.50;;;;;;5073911;28;20460;-54
2023/07/12 12:15:22;;;;;;;3.00;1.20;;;33.60;29.60;;;;;;5073533;28;20444;-54
2023/07/12 12:17:51;;;;;;;2.60;0.93;;;33.80;29.30;;;;;;5073867;28;20451;-54
2023/07/12 12:20:20;;;;;;;8.07;2.00;;;34.30;29.00;;;;;;5073259;28;20537;-55
2023/07/12 12:22:52;;;;;;;8.70;1.40;;;34.80;27.50;;;;;;5073647;28;20468;-54
2023/07/12 12:25:22;;;;;;;7.50;1.40;;;35.40;26.00;;;;;;5073587;28;20922;-54
2023/07/12 12:27:50;;;;;;;7.60;1.30;;;35.20;26.40;;;;;;5073686;28;20451;-55
2023/07/12 12:30:22;;;;;;;7.60;1.30;;;35.90;26.40;;;;;;5073316;28;20444;-55
2023/07/12 12:33:01;;;;;;;2.90;1.23;;;36.00;25.60;;;;;;5073482;28;21005;-54
2023/07/12 12:35:28;;;;;;;2.93;1.50;;;35.30;26.00;;;;;;5073315;28;20448;-54
2023/07/12 12:37:55;;;;;;;4.43;1.40;;;34.10;27.70;;;;;;5073274;28;20443;-54
2023/07/12 12:40:23;;;;;;;6.53;1.47;;;32.90;28.60;;;;;;5073148;28;20479;-54
2023/07/12 12:42:58;;;;;;;3.60;0.97;;;31.70;31.20;;;;;;5073527;28;20463;-54
2023/07/12 12:45:30;;;;;;;3.53;1.10;;;31.40;31.00;;;;;;5073656;28;20470;-54
2023/07/12 12:47:57;;;;;;;3.00;0.97;;;32.10;28.10;;;;;;5073322;28;20803;-54
2023/07/12 12:50:24;;;;;;;4.30;1.17;;;32.70;28.80;;;;;;5073463;28;20448;-54
2023/07/12 12:52:51;;;;;;;2.50;0.90;;;33.50;27.70;;;;;;5073498;28;20546;-55
2023/07/12 12:55:18;;;;;;;5.50;1.73;;;34.10;26.40;;;;;;5073413;28;20444;-55